CheckWX is a tool to help pilots better visualize weather data.  It is not intended as a substitute for an official pre-flight weather briefing.

16:32:38 UTC

KROC METAR
Greater Rochester International Airport
Rochester, New York, USA
Current

39 mins ago

KROC 221554Z 26009KT 10SM BKN055 BKN075 OVC170 22/11 A2997 RMK AO2 SLP147 T02170111
Observed
Aug-22 @ 15:54 UTC
Wind
  • 260° at 9 KTS
Visibility
10 SM
Flight Rules
VFR
Cloud Levels
  • Broken at 5,500' AGL
  • Broken at 7,500' AGL
  • Overcast at 17,000' AGL
Temperature
22°C / 72°F
Dewpoint
11°C / 52°F
Humidity
50%
Altimeter
29.97" Hg
Pressure
1014.92 hPa
Previous

2 hours ago

KROC 221454Z 28007KT 10SM FEW050 SCT070 BKN150 BKN230 22/13 A2995 RMK AO2 SLP142 T02170133 51012
Observed
Aug-22 @ 14:54 UTC
Wind
  • 280° at 7 KTS
Visibility
10 SM
Flight Rules
VFR
Cloud Levels
  • Few at 5,000' AGL
  • Scattered at 7,000' AGL
  • Broken at 15,000' AGL
  • Broken at 23,000' AGL
Temperature
22°C / 72°F
Dewpoint
13°C / 55°F
Humidity
57%
Altimeter
29.95" Hg
Pressure
1014.22 hPa
Previous

3 hours ago

KROC 221354Z 30008KT 10SM SCT055 BKN070 OVC150 21/13 A2994 RMK AO2 SLP138 T02110133
Observed
Aug-22 @ 13:54 UTC
Wind
  • 300° at 8 KTS
Visibility
10 SM
Flight Rules
VFR
Cloud Levels
  • Scattered at 5,500' AGL
  • Broken at 7,000' AGL
  • Overcast at 15,000' AGL
Temperature
21°C / 70°F
Dewpoint
13°C / 55°F
Humidity
60%
Altimeter
29.94" Hg
Pressure
1013.92 hPa